Time;durP1;ratioP1;P1;durP2;ratioP2;P2;SDS_P1;SDS_P2;PMS_P1;PMS_P2;Temp;Humidity;BMP_temperature;BMP_pressure;BME280_temperature;BME280_humidity;BME280_pressure;Samples;Min_cycle;Max_cycle;Signal;HPM_P1;HPM_P2
2020/12/07 00:05:16;;;;;;;176.45;46.13;;;3.60;99.90;;;;;;12524198;28;20662;-34
2020/12/07 00:11:18;;;;;;;209.07;42.92;;;3.60;99.90;;;;;;12526730;28;20045;-34
2020/12/07 00:17:23;;;;;;;110.45;39.70;;;3.60;99.90;;;;;;12528847;28;20052;-34
2020/12/07 00:23:25;;;;;;;109.82;40.10;;;3.60;99.90;;;;;;12517599;28;20476;-34
2020/12/07 00:29:26;;;;;;;166.98;42.45;;;3.60;99.90;;;;;;12524355;28;20127;-34
2020/12/07 00:35:28;;;;;;;113.45;37.85;;;3.60;99.90;;;;;;12513532;28;20055;-34
2020/12/07 00:41:30;;;;;;;132.80;41.40;;;3.60;99.90;;;;;;12521646;28;20052;-34
2020/12/07 00:47:31;;;;;;;104.93;38.78;;;3.60;99.90;;;;;;12519959;28;20044;-34
2020/12/07 00:53:34;;;;;;;90.15;33.75;;;3.60;99.90;;;;;;12515313;28;20052;-34
2020/12/07 00:59:36;;;;;;;108.45;37.97;;;3.60;99.90;;;;;;12523664;28;20114;-34
2020/12/07 01:05:38;;;;;;;158.25;44.95;;;3.70;99.90;;;;;;12530186;28;20205;-34
2020/12/07 01:11:42;;;;;;;174.77;45.55;;;3.70;99.90;;;;;;12520770;28;20542;-34
2020/12/07 01:17:43;;;;;;;138.70;40.67;;;3.60;99.90;;;;;;12518451;28;20049;-34
2020/12/07 01:23:46;;;;;;;134.27;42.20;;;3.60;99.90;;;;;;12524396;28;20056;-34
2020/12/07 01:29:47;;;;;;;160.93;44.50;;;3.60;99.90;;;;;;12517934;28;20472;-34
2020/12/07 01:35:49;;;;;;;143.90;41.13;;;3.60;99.90;;;;;;12511865;28;20056;-34
2020/12/07 01:41:51;;;;;;;112.38;37.50;;;3.60;99.90;;;;;;12526577;28;20266;-34
2020/12/07 01:47:53;;;;;;;131.48;40.65;;;3.60;99.90;;;;;;12533804;28;20053;-34
2020/12/07 01:53:56;;;;;;;149.73;42.35;;;3.60;99.90;;;;;;12533748;28;20501;-34
2020/12/07 01:59:58;;;;;;;168.35;41.28;;;3.60;99.90;;;;;;12538015;28;20116;-34
2020/12/07 02:05:59;;;;;;;150.65;42.42;;;3.60;99.90;;;;;;12529824;28;20404;-34
2020/12/07 02:12:01;;;;;;;143.48;39.92;;;3.60;99.90;;;;;;12543519;28;20072;-34
2020/12/07 02:18:04;;;;;;;135.57;40.80;;;3.60;99.90;;;;;;12540063;28;20060;-34
2020/12/07 02:24:06;;;;;;;139.77;40.03;;;3.60;99.90;;;;;;12540681;28;20075;-34
2020/12/07 02:30:07;;;;;;;112.47;36.90;;;3.60;99.90;;;;;;12542233;28;20473;-34
2020/12/07 02:36:09;;;;;;;132.18;36.58;;;3.60;99.90;;;;;;12528854;28;20060;-34
2020/12/07 02:42:11;;;;;;;107.93;33.83;;;3.60;99.90;;;;;;12523385;28;20048;-34
2020/12/07 02:48:13;;;;;;;92.13;33.28;;;3.60;99.90;;;;;;12535295;28;20099;-34
2020/12/07 02:54:15;;;;;;;93.93;32.58;;;3.60;99.90;;;;;;12526275;28;20072;-34
2020/12/07 03:00:16;;;;;;;81.63;30.13;;;3.60;99.90;;;;;;12542680;28;20136;-34
2020/12/07 03:06:18;;;;;;;85.03;32.00;;;3.60;99.90;;;;;;12520116;28;20068;-34
2020/12/07 03:12:19;;;;;;;70.68;29.52;;;3.50;99.90;;;;;;12527860;28;20507;-34
2020/12/07 03:18:21;;;;;;;72.18;28.00;;;3.50;99.90;;;;;;12532592;28;20057;-34
2020/12/07 03:24:22;;;;;;;78.32;27.92;;;3.50;99.90;;;;;;12520910;28;20048;-34
2020/12/07 03:30:24;;;;;;;61.17;26.80;;;3.50;99.90;;;;;;12522613;28;20210;-34
2020/12/07 03:36:26;;;;;;;70.07;28.42;;;3.50;99.90;;;;;;12530511;28;20052;-34
2020/12/07 03:42:27;;;;;;;67.40;27.13;;;3.60;99.90;;;;;;12520798;28;20076;-34
2020/12/07 03:48:29;;;;;;;74.68;28.45;;;3.60;99.90;;;;;;12535235;28;20048;-34
2020/12/07 03:54:31;;;;;;;63.83;28.10;;;3.60;99.90;;;;;;12525791;28;20053;-34
2020/12/07 04:00:33;;;;;;;72.60;28.73;;;3.50;99.90;;;;;;12537433;28;20049;-34
2020/12/07 04:06:39;;;;;;;66.50;26.58;;;3.60;99.90;;;;;;12530511;28;20346;-34
2020/12/07 04:12:41;;;;;;;58.67;24.50;;;3.60;99.90;;;;;;12520217;28;20060;-34
2020/12/07 04:18:43;;;;;;;44.25;20.65;;;3.60;99.90;;;;;;12516269;28;20061;-35
2020/12/07 04:24:45;;;;;;;38.92;17.60;;;3.60;99.90;;;;;;12508272;28;20044;-34
2020/12/07 04:30:47;;;;;;;35.75;16.10;;;3.50;99.90;;;;;;12531170;28;20067;-34
2020/12/07 04:36:48;;;;;;;30.70;15.77;;;3.60;99.90;;;;;;12525916;28;20370;-34
2020/12/07 04:42:50;;;;;;;32.45;15.70;;;3.60;99.90;;;;;;12517312;28;20519;-34
2020/12/07 04:48:53;;;;;;;29.60;15.27;;;3.60;99.90;;;;;;12533616;28;20711;-34
2020/12/07 04:54:56;;;;;;;30.02;14.85;;;3.60;99.90;;;;;;12511107;28;20405;-34
2020/12/07 05:00:58;;;;;;;26.02;13.95;;;3.50;99.90;;;;;;12523502;28;20092;-34
2020/12/07 05:07:04;;;;;;;20.75;11.38;;;3.50;99.90;;;;;;12515439;28;20082;-34
2020/12/07 05:13:32;;;;;;;16.30;9.35;;;3.40;99.90;;;;;;12529833;28;20903;-34
2020/12/07 05:19:33;;;;;;;15.70;8.52;;;3.40;99.90;;;;;;12527941;28;20132;-34
2020/12/07 05:25:36;;;;;;;15.18;8.15;;;3.30;99.90;;;;;;12517447;28;20132;-34
2020/12/07 05:31:38;;;;;;;11.63;7.28;;;3.30;99.90;;;;;;12527590;28;20160;-34
2020/12/07 05:37:40;;;;;;;11.98;7.47;;;3.20;99.90;;;;;;12527256;28;20491;-34
2020/12/07 05:43:41;;;;;;;10.80;6.47;;;3.20;99.90;;;;;;12532691;28;20358;-34
2020/12/07 05:49:48;;;;;;;8.70;5.72;;;3.20;99.90;;;;;;12532016;28;20053;-36
2020/12/07 05:55:50;;;;;;;11.65;6.88;;;3.20;99.90;;;;;;12511841;28;20428;-34
2020/12/07 06:01:52;;;;;;;12.18;7.10;;;3.10;99.90;;;;;;12504009;28;20577;-34
2020/12/07 06:08:11;;;;;;;11.70;7.03;;;3.10;99.90;;;;;;12515025;28;20049;-34
2020/12/07 06:14:14;;;;;;;11.10;6.35;;;3.00;99.90;;;;;;12522931;28;20061;-34
2020/12/07 06:20:31;;;;;;;8.82;4.72;;;3.00;99.90;;;;;;12530111;28;20418;-34
2020/12/07 06:26:33;;;;;;;7.20;4.15;;;2.80;99.90;;;;;;12505349;28;20072;-34
2020/12/07 06:32:48;;;;;;;6.50;4.20;;;2.70;99.90;;;;;;12524909;28;20751;-34
2020/12/07 06:38:50;;;;;;;8.07;5.20;;;2.70;99.90;;;;;;12530134;28;20098;-34
2020/12/07 06:44:52;;;;;;;8.23;5.07;;;2.70;99.90;;;;;;12532273;28;20123;-34
2020/12/07 06:50:56;;;;;;;8.30;5.15;;;2.60;99.90;;;;;;12535591;28;20392;-34
2020/12/07 06:57:19;;;;;;;8.77;5.68;;;2.60;99.90;;;;;;12528597;28;20385;-34
2020/12/07 07:03:21;;;;;;;9.68;6.55;;;2.60;99.90;;;;;;12528019;28;20507;-34
2020/12/07 07:09:23;;;;;;;11.15;7.28;;;2.60;99.90;;;;;;12529488;28;20075;-34
2020/12/07 07:15:24;;;;;;;10.57;6.70;;;2.60;99.90;;;;;;12537138;28;20056;-34
2020/12/07 07:21:26;;;;;;;11.60;6.93;;;2.60;99.90;;;;;;12536487;28;20095;-34
2020/12/07 07:33:49;;;;;;;12.95;8.25;;;2.60;99.90;;;;;;12514719;28;20090;-34
2020/12/07 07:40:00;;;;;;;16.88;9.90;;;2.70;99.90;;;;;;12538628;28;20476;-34
2020/12/07 07:46:02;;;;;;;17.02;10.10;;;2.60;99.90;;;;;;12530434;28;20431;-34
2020/12/07 08:17:56;;;;;;;24.15;14.35;;;2.80;99.90;;;;;;12529472;28;20057;-34
2020/12/07 08:24:05;;;;;;;21.52;13.23;;;2.90;99.90;;;;;;12528984;28;20073;-34
2020/12/07 08:30:08;;;;;;;22.02;13.55;;;2.80;99.90;;;;;;12531526;28;20135;-34
2020/12/07 08:36:09;;;;;;;20.08;13.55;;;2.90;99.90;;;;;;12523434;28;20611;-34
2020/12/07 08:42:11;;;;;;;22.45;13.75;;;2.90;99.90;;;;;;12536029;28;20048;-34
2020/12/07 08:48:13;;;;;;;23.35;14.50;;;3.00;99.90;;;;;;12535042;28;20053;-34
2020/12/07 08:54:15;;;;;;;27.15;15.88;;;3.00;99.90;;;;;;12514581;28;20057;-34
2020/12/07 09:00:17;;;;;;;29.13;17.42;;;3.00;99.90;;;;;;12509994;28;20045;-34
2020/12/07 09:06:21;;;;;;;34.17;19.55;;;3.10;99.90;;;;;;12521155;28;20475;-34
2020/12/07 09:12:22;;;;;;;34.83;19.25;;;3.10;99.90;;;;;;12519498;28;20084;-34
2020/12/07 09:18:24;;;;;;;37.63;20.40;;;3.10;99.90;;;;;;12528129;28;20063;-34
2020/12/07 09:24:26;;;;;;;43.95;22.02;;;3.20;99.90;;;;;;12513359;28;20053;-34
2020/12/07 09:30:27;;;;;;;46.40;22.17;;;3.20;99.90;;;;;;12528098;28;20111;-34
2020/12/07 09:36:29;;;;;;;45.25;21.60;;;3.40;99.90;;;;;;12528853;28;20130;-34
2020/12/07 09:42:31;;;;;;;45.03;22.13;;;3.40;99.90;;;;;;12525593;28;20495;-34
2020/12/07 09:48:33;;;;;;;44.95;23.20;;;3.40;99.90;;;;;;12527312;28;20052;-34
2020/12/07 09:54:39;;;;;;;52.03;25.13;;;3.40;99.90;;;;;;12530005;28;20118;-34
2020/12/07 10:00:40;;;;;;;51.08;25.77;;;3.50;99.90;;;;;;12532791;28;20369;-34
2020/12/07 10:06:42;;;;;;;49.88;24.40;;;3.50;99.90;;;;;;12522704;28;20044;-34
2020/12/07 10:12:43;;;;;;;42.22;23.20;;;3.60;99.90;;;;;;12529027;28;20044;-34
2020/12/07 10:18:46;;;;;;;40.63;22.50;;;3.60;99.90;;;;;;12541373;28;20548;-34
2020/12/07 10:24:48;;;;;;;35.72;21.02;;;3.60;99.90;;;;;;12519881;28;20041;-34
2020/12/07 10:30:50;;;;;;;37.70;20.90;;;3.60;99.90;;;;;;12531751;28;20787;-34
2020/12/07 10:36:51;;;;;;;27.15;18.70;;;3.60;99.90;;;;;;12531574;28;20067;-34
2020/12/07 10:42:53;;;;;;;22.73;16.35;;;3.60;99.90;;;;;;12521548;28;20718;-34
2020/12/07 10:48:54;;;;;;;21.27;15.23;;;3.60;99.90;;;;;;12532727;28;20045;-34
2020/12/07 10:54:57;;;;;;;18.40;13.43;;;3.60;99.90;;;;;;12531297;28;20049;-34
2020/12/07 11:00:59;;;;;;;17.50;12.80;;;3.60;99.90;;;;;;12523804;28;20109;-34
2020/12/07 11:07:02;;;;;;;14.18;10.75;;;3.70;99.90;;;;;;12534037;28;20409;-34
2020/12/07 11:13:13;;;;;;;14.63;10.87;;;3.70;99.90;;;;;;12514765;28;20090;-34
2020/12/07 11:19:15;;;;;;;15.68;11.73;;;3.80;99.90;;;;;;12498219;28;20052;-35
2020/12/07 11:25:16;;;;;;;14.65;11.55;;;3.80;99.90;;;;;;12494326;28;20069;-34
2020/12/07 11:31:18;;;;;;;13.82;10.63;;;3.80;99.90;;;;;;12490605;28;20484;-34
2020/12/07 11:37:20;;;;;;;16.52;12.40;;;3.90;99.90;;;;;;12498586;28;20156;-34
2020/12/07 11:43:38;;;;;;;17.90;12.30;;;3.90;99.90;;;;;;12491235;28;20101;-34
2020/12/07 11:49:39;;;;;;;16.30;12.25;;;3.90;99.90;;;;;;12490085;28;20564;-34
2020/12/07 11:55:45;;;;;;;16.10;11.88;;;3.90;99.90;;;;;;12480634;28;21361;-34
2020/12/07 12:01:47;;;;;;;14.52;11.20;;;3.90;99.90;;;;;;12495340;28;20079;-35
2020/12/07 12:07:48;;;;;;;13.50;10.40;;;3.90;99.90;;;;;;12484607;28;20046;-34
2020/12/07 12:13:53;;;;;;;11.80;8.88;;;3.90;99.90;;;;;;12483691;28;20793;-34
2020/12/07 12:19:54;;;;;;;10.85;8.75;;;3.90;99.90;;;;;;12512610;28;20242;-34
2020/12/07 12:25:56;;;;;;;11.77;9.68;;;3.90;99.90;;;;;;12515878;28;20056;-34
2020/12/07 12:31:57;;;;;;;10.35;9.05;;;3.90;99.90;;;;;;12528028;28;20143;-34
2020/12/07 12:37:59;;;;;;;12.60;8.88;;;4.00;99.90;;;;;;12530948;28;20306;-34
2020/12/07 12:44:07;;;;;;;10.80;8.52;;;4.00;99.90;;;;;;12529649;28;20575;-34
2020/12/07 12:50:09;;;;;;;13.45;10.20;;;3.90;99.90;;;;;;12520270;28;20044;-34
2020/12/07 12:56:12;;;;;;;13.15;9.80;;;3.90;99.90;;;;;;12528913;28;20051;-34
2020/12/07 13:02:13;;;;;;;13.27;9.60;;;3.90;99.90;;;;;;12524657;28;20045;-34
2020/12/07 13:08:15;;;;;;;13.90;10.75;;;4.00;99.90;;;;;;12521427;28;20060;-34
2020/12/07 13:14:17;;;;;;;13.57;10.13;;;4.00;99.90;;;;;;12527887;28;20152;-34
2020/12/07 13:20:26;;;;;;;10.43;8.43;;;4.00;99.90;;;;;;12530445;28;20049;-34
2020/12/07 13:26:45;;;;;;;10.30;8.25;;;4.00;99.90;;;;;;12533848;28;20052;-34
2020/12/07 13:32:46;;;;;;;9.20;7.15;;;4.00;99.90;;;;;;12525006;28;20076;-34
2020/12/07 13:38:48;;;;;;;8.82;6.90;;;4.10;99.90;;;;;;12529465;28;20140;-34
2020/12/07 13:44:50;;;;;;;9.43;7.20;;;4.10;99.90;;;;;;12538023;28;20463;-34
2020/12/07 13:50:52;;;;;;;9.63;7.40;;;4.20;99.90;;;;;;12508288;28;20514;-34
2020/12/07 13:56:54;;;;;;;8.88;7.03;;;4.10;99.90;;;;;;12508958;28;20571;-34
2020/12/07 14:02:56;;;;;;;9.82;7.10;;;4.20;99.90;;;;;;12521007;28;20052;-34
2020/12/07 14:08:58;;;;;;;7.88;6.43;;;4.20;99.90;;;;;;12513443;28;20084;-34
2020/12/07 14:15:01;;;;;;;9.50;7.72;;;4.20;99.90;;;;;;12521449;28;20049;-34
2020/12/07 14:21:09;;;;;;;10.02;6.75;;;4.30;99.90;;;;;;12535948;28;20408;-34
2020/12/07 14:45:58;;;;;;;;;;;4.30;99.90;;;;;;12536998;28;20045;-34
2020/12/07 14:52:04;;;;;;;7.40;6.03;;;4.30;99.90;;;;;;12525533;28;19924;-34
2020/12/07 15:16:51;;;;;;;8.30;6.60;;;4.30;99.90;;;;;;12532592;28;20056;-33
2020/12/07 15:22:53;;;;;;;7.70;6.22;;;4.20;99.90;;;;;;12530546;28;20091;-34
2020/12/07 15:28:57;;;;;;;8.75;6.20;;;4.20;99.90;;;;;;12539832;28;20443;-33
2020/12/07 15:34:59;;;;;;;8.95;6.88;;;4.30;99.90;;;;;;12533449;28;20057;-33
2020/12/07 15:41:00;;;;;;;7.88;6.80;;;4.30;99.90;;;;;;12520135;28;20523;-33
2020/12/07 15:47:03;;;;;;;7.97;6.63;;;4.30;99.90;;;;;;12522368;28;20049;-33
2020/12/07 15:53:05;;;;;;;7.78;6.60;;;4.30;99.90;;;;;;12527630;28;20056;-33
2020/12/07 15:59:07;;;;;;;8.55;7.30;;;4.20;99.90;;;;;;12528479;28;20078;-33
2020/12/07 16:05:09;;;;;;;9.27;7.78;;;4.30;99.90;;;;;;12533305;28;20165;-34
2020/12/07 16:11:18;;;;;;;9.05;8.02;;;4.20;99.90;;;;;;12521771;28;20048;-34
2020/12/07 16:17:20;;;;;;;9.88;8.02;;;4.20;99.90;;;;;;12524300;28;20063;-33
2020/12/07 16:23:22;;;;;;;11.15;9.95;;;4.20;99.90;;;;;;12520829;28;20048;-33
2020/12/07 16:29:24;;;;;;;15.07;11.20;;;4.10;99.90;;;;;;12520166;28;20462;-33
2020/12/07 16:35:26;;;;;;;19.13;15.25;;;4.10;99.90;;;;;;12527399;28;20098;-33
2020/12/07 16:41:27;;;;;;;13.63;9.90;;;4.10;99.90;;;;;;12524354;28;20563;-33
2020/12/07 16:47:29;;;;;;;11.82;9.35;;;4.10;99.90;;;;;;12523667;28;20072;-33
2020/12/07 16:53:30;;;;;;;15.65;12.13;;;4.10;99.90;;;;;;12514669;28;20143;-34
2020/12/07 16:59:33;;;;;;;12.18;9.98;;;4.20;99.90;;;;;;12532741;28;20454;-34
2020/12/07 17:05:35;;;;;;;13.30;10.10;;;4.10;99.90;;;;;;12523497;28;20041;-34
2020/12/07 17:11:37;;;;;;;13.77;11.15;;;4.10;99.90;;;;;;12523040;28;20060;-34
2020/12/07 17:17:39;;;;;;;13.30;10.10;;;4.10;99.90;;;;;;12528008;28;20112;-33
2020/12/07 17:23:41;;;;;;;16.85;13.32;;;4.10;99.90;;;;;;12516546;28;20051;-33
2020/12/07 17:29:43;;;;;;;21.48;14.90;;;4.10;99.90;;;;;;12522484;28;20072;-33
2020/12/07 17:35:45;;;;;;;24.70;16.88;;;4.10;99.90;;;;;;12525933;28;20250;-33
2020/12/07 17:41:46;;;;;;;23.40;16.13;;;4.10;99.90;;;;;;12513496;28;20069;-33
2020/12/07 17:47:48;;;;;;;19.08;13.95;;;4.00;99.90;;;;;;12506264;28;20053;-33
2020/12/07 17:53:51;;;;;;;15.10;9.88;;;3.90;99.90;;;;;;12516230;28;20512;-33
2020/12/07 17:59:53;;;;;;;16.73;11.35;;;3.90;99.90;;;;;;12528473;28;20092;-33
2020/12/07 18:05:55;;;;;;;12.88;9.32;;;3.90;99.90;;;;;;12525585;28;20062;-33
2020/12/07 18:12:07;;;;;;;11.15;8.48;;;3.80;99.90;;;;;;12527171;28;20060;-34
2020/12/07 18:18:14;;;;;;;11.73;9.32;;;3.70;99.90;;;;;;12523716;28;20598;-33
2020/12/07 18:24:16;;;;;;;10.63;8.13;;;3.60;99.90;;;;;;12526779;28;20822;-34
2020/12/07 18:30:18;;;;;;;10.43;7.18;;;3.50;99.90;;;;;;12527428;28;20083;-33
2020/12/07 18:36:19;;;;;;;8.98;6.07;;;3.30;99.90;;;;;;12532533;28;20136;-33
2020/12/07 18:42:21;;;;;;;10.75;7.78;;;3.30;99.90;;;;;;12532828;28;20413;-33
2020/12/07 18:48:23;;;;;;;7.80;6.10;;;3.20;99.90;;;;;;12524245;28;20477;-33
2020/12/07 18:54:26;;;;;;;10.50;7.10;;;3.00;99.90;;;;;;12537450;28;20045;-33
2020/12/07 19:00:27;;;;;;;9.20;6.38;;;2.90;99.90;;;;;;12532199;28;20124;-33
2020/12/07 19:06:29;;;;;;;13.80;9.88;;;2.80;99.90;;;;;;12519359;28;20671;-33
2020/12/07 19:12:31;;;;;;;12.75;8.73;;;2.90;99.90;;;;;;12533482;28;20048;-33
2020/12/07 19:18:33;;;;;;;10.85;7.70;;;2.80;99.90;;;;;;12507903;28;20095;-33
2020/12/07 19:24:34;;;;;;;11.90;8.60;;;2.90;99.90;;;;;;12502479;28;20785;-33
2020/12/07 19:30:35;;;;;;;17.63;11.30;;;3.20;99.90;;;;;;12525882;28;20159;-33
2020/12/07 19:36:37;;;;;;;20.33;12.98;;;3.30;99.90;;;;;;12513704;28;20361;-33
2020/12/07 19:42:39;;;;;;;15.27;10.75;;;3.30;99.90;;;;;;12588265;23;20081;-36
2020/12/07 19:48:40;;;;;;;15.70;11.35;;;3.30;99.90;;;;;;12449309;28;21071;-36
2020/12/07 19:54:42;;;;;;;9.30;6.95;;;3.10;99.90;;;;;;12458152;28;20128;-36
2020/12/07 20:00:43;;;;;;;10.85;8.43;;;2.90;99.90;;;;;;12450366;28;20559;-35
2020/12/07 20:06:45;;;;;;;13.10;8.98;;;2.80;99.90;;;;;;12440648;28;20106;-36
2020/12/07 20:12:46;;;;;;;14.75;10.50;;;2.80;99.90;;;;;;12422704;28;20551;-36
2020/12/07 20:18:47;;;;;;;12.70;8.95;;;2.80;99.90;;;;;;12447562;28;20053;-35
2020/12/07 20:24:49;;;;;;;12.77;9.13;;;2.90;99.90;;;;;;12433265;28;20072;-36
2020/12/07 20:30:55;;;;;;;14.68;10.23;;;2.90;99.90;;;;;;12439379;28;20137;-33
2020/12/07 20:36:56;;;;;;;15.27;10.90;;;3.00;99.90;;;;;;12438736;28;20473;-33
2020/12/07 20:42:57;;;;;;;15.05;10.35;;;3.10;99.90;;;;;;12441418;28;20982;-33
2020/12/07 20:48:59;;;;;;;14.35;9.65;;;3.00;99.90;;;;;;12438076;28;20050;-33
2020/12/07 20:55:01;;;;;;;15.98;11.50;;;2.90;99.90;;;;;;12443650;28;20069;-33
2020/12/07 21:01:04;;;;;;;20.10;13.05;;;2.80;99.90;;;;;;12444314;28;20307;-35
2020/12/07 21:07:05;;;;;;;15.95;11.85;;;2.80;99.90;;;;;;12433517;28;20079;-36
2020/12/07 21:13:06;;;;;;;12.80;9.50;;;2.90;99.90;;;;;;12432601;28;20050;-35
2020/12/07 21:19:09;;;;;;;13.32;8.93;;;2.80;99.90;;;;;;12438624;28;20132;-35
2020/12/07 21:25:10;;;;;;;13.75;9.70;;;2.60;99.90;;;;;;12441906;28;20085;-33
2020/12/07 21:31:17;;;;;;;17.80;12.27;;;2.50;99.90;;;;;;12445930;28;20077;-33
2020/12/07 21:37:19;;;;;;;15.52;11.45;;;2.60;99.90;;;;;;12442896;28;20056;-33
2020/12/07 21:43:20;;;;;;;69.03;38.03;;;2.60;99.90;;;;;;12448535;28;20083;-33
2020/12/07 21:49:22;;;;;;;18.35;12.35;;;2.70;99.90;;;;;;12441051;28;20093;-33
2020/12/07 21:55:23;;;;;;;15.18;11.65;;;2.80;99.90;;;;;;12445875;28;20141;-35
2020/12/07 22:01:24;;;;;;;15.48;10.88;;;2.80;99.90;;;;;;12450254;28;20084;-33
2020/12/07 22:07:26;;;;;;;15.57;11.57;;;2.90;99.90;;;;;;12433222;28;20449;-33
2020/12/07 22:13:27;;;;;;;17.25;11.73;;;2.90;99.90;;;;;;12421309;28;20551;-33
2020/12/07 22:19:29;;;;;;;20.17;13.07;;;3.00;99.90;;;;;;12451306;28;20057;-33
2020/12/07 22:25:30;;;;;;;20.58;14.68;;;2.90;99.90;;;;;;12439545;28;20531;-33
2020/12/07 22:31:31;;;;;;;22.30;14.68;;;3.00;99.90;;;;;;12436952;28;20229;-33
2020/12/07 22:37:33;;;;;;;20.63;14.38;;;3.00;99.90;;;;;;12455467;28;20574;-33
2020/12/07 22:43:35;;;;;;;22.13;15.45;;;2.90;99.90;;;;;;12459081;28;20065;-33
2020/12/07 22:49:36;;;;;;;24.38;16.02;;;2.80;99.90;;;;;;12436239;28;20148;-33
2020/12/07 22:55:38;;;;;;;23.35;15.68;;;2.60;99.90;;;;;;12463682;28;20056;-33
2020/12/07 23:01:41;;;;;;;23.23;15.98;;;2.60;99.90;;;;;;12456006;28;20088;-33
2020/12/07 23:07:42;;;;;;;28.33;17.42;;;2.60;99.90;;;;;;12411050;28;20072;-33
2020/12/07 23:13:43;;;;;;;25.17;16.40;;;2.70;99.90;;;;;;12427783;28;20136;-33
2020/12/07 23:19:48;;;;;;;26.48;16.80;;;2.80;99.90;;;;;;12428239;28;20054;-33
2020/12/07 23:25:51;;;;;;;25.75;16.65;;;2.90;99.90;;;;;;12444046;28;20073;-33
2020/12/07 23:31:52;;;;;;;26.48;17.30;;;2.80;99.90;;;;;;12456856;28;20100;-33
2020/12/07 23:37:54;;;;;;;30.88;19.00;;;2.80;99.90;;;;;;12443112;28;20056;-33
2020/12/07 23:43:55;;;;;;;28.10;17.10;;;2.80;99.90;;;;;;12446851;28;20616;-33
2020/12/07 23:49:57;;;;;;;27.75;16.85;;;2.70;99.90;;;;;;12441618;28;20097;-33
2020/12/07 23:55:59;;;;;;;26.65;17.25;;;2.70;99.90;;;;;;12458599;28;20528;-33
